Time;durP1;ratioP1;P1;durP2;ratioP2;P2;SDS_P1;SDS_P2;PMS_P1;PMS_P2;Temp;Humidity;BMP_temperature;BMP_pressure;BME280_temperature;BME280_humidity;BME280_pressure;Samples;Min_cycle;Max_cycle;Signal;HPM_P1;HPM_P2
2023/05/12 17:16:41;;;;;;;3.70;2.15;;;22.40;57.60;;;;;;5110170;27;20352;-63
2023/05/12 17:19:07;;;;;;;3.70;2.40;;;22.20;59.60;;;;;;5126365;27;20103;-63
2023/05/12 17:21:33;;;;;;;4.07;2.40;;;22.30;59.50;;;;;;5128564;28;20406;-65
2023/05/12 17:23:58;;;;;;;4.50;2.67;;;22.50;60.30;;;;;;5130395;27;20102;-64
2023/05/12 17:26:26;;;;;;;4.10;2.22;;;22.80;59.30;;;;;;5111718;28;20617;-66
2023/05/12 17:28:52;;;;;;;4.82;2.70;;;23.30;57.30;;;;;;5109214;28;20019;-65
2023/05/12 17:31:18;;;;;;;4.47;2.42;;;23.60;57.80;;;;;;5109212;28;20020;-63
2023/05/12 17:33:44;;;;;;;3.25;2.00;;;23.80;57.90;;;;;;5108486;28;20096;-63
2023/05/12 17:36:10;;;;;;;4.82;2.28;;;24.20;58.00;;;;;;5107778;28;20035;-63
2023/05/12 17:38:37;;;;;;;3.60;2.38;;;24.40;57.80;;;;;;5128263;27;20016;-65
2023/05/12 17:41:03;;;;;;;4.03;2.28;;;24.50;58.00;;;;;;5128929;28;20357;-65
2023/05/12 17:43:29;;;;;;;3.60;2.67;;;24.30;58.00;;;;;;5111391;28;20031;-63
2023/05/12 17:45:55;;;;;;;3.97;2.63;;;24.10;55.80;;;;;;5110159;28;20035;-64
2023/05/12 17:48:21;;;;;;;4.97;2.50;;;23.80;56.50;;;;;;5126292;27;20476;-63
2023/05/12 17:50:46;;;;;;;3.78;2.60;;;23.90;57.30;;;;;;5129119;27;20069;-65
2023/05/12 17:53:13;;;;;;;4.40;2.55;;;24.60;56.90;;;;;;5129011;27;20024;-63
2023/05/12 17:55:38;;;;;;;4.57;2.60;;;25.20;55.30;;;;;;5108637;28;20495;-64
2023/05/12 17:58:04;;;;;;;4.90;2.78;;;25.90;52.50;;;;;;5109470;28;20022;-64
2023/05/12 18:00:29;;;;;;;5.65;3.15;;;26.40;50.20;;;;;;5109747;28;20437;-64
2023/05/12 18:02:55;;;;;;;3.67;2.15;;;26.80;50.50;;;;;;5111085;28;20023;-64
2023/05/12 18:05:21;;;;;;;4.28;2.58;;;27.10;50.10;;;;;;5108861;28;20028;-63
2023/05/12 18:07:46;;;;;;;3.80;2.40;;;27.30;49.00;;;;;;5108128;28;20024;-63
2023/05/12 18:10:13;;;;;;;2.88;2.13;;;27.40;47.80;;;;;;5111906;28;20486;-62
2023/05/12 18:12:38;;;;;;;4.57;2.42;;;27.20;48.50;;;;;;5116743;28;20024;-62
2023/05/12 18:15:05;;;;;;;3.30;2.20;;;26.60;48.50;;;;;;5108074;28;20047;-63
2023/05/12 18:17:31;;;;;;;3.72;2.42;;;25.80;49.90;;;;;;5106764;28;20030;-62
2023/05/12 18:19:56;;;;;;;3.67;2.60;;;25.00;50.70;;;;;;5109334;28;20020;-64
2023/05/12 18:22:22;;;;;;;3.10;2.25;;;24.30;51.60;;;;;;5128875;27;20011;-64
2023/05/12 18:24:49;;;;;;;3.70;2.30;;;23.80;53.00;;;;;;5127752;28;20026;-63
2023/05/12 18:27:15;;;;;;;3.25;2.72;;;23.40;54.30;;;;;;5119172;28;20380;-65
2023/05/12 18:29:41;;;;;;;3.92;2.60;;;23.10;54.50;;;;;;5105972;28;20017;-62
2023/05/12 18:32:07;;;;;;;3.80;2.35;;;22.90;55.90;;;;;;5095664;28;20020;-64
2023/05/12 18:34:33;;;;;;;3.78;2.38;;;22.60;56.30;;;;;;5094214;28;20039;-64
2023/05/12 18:36:58;;;;;;;3.58;2.15;;;22.50;57.70;;;;;;5093616;28;20024;-63
2023/05/12 18:39:24;;;;;;;3.60;2.70;;;22.30;57.60;;;;;;5093009;28;20066;-63
2023/05/12 18:41:52;;;;;;;4.15;2.58;;;22.10;58.10;;;;;;5093537;28;20376;-65
2023/05/12 18:44:18;;;;;;;4.88;2.80;;;22.00;59.00;;;;;;5093621;28;20048;-64
2023/05/12 18:46:44;;;;;;;3.63;2.70;;;21.90;58.80;;;;;;5094003;28;20020;-63
2023/05/12 18:49:09;;;;;;;3.13;2.30;;;21.70;59.50;;;;;;5094656;28;20020;-65
2023/05/12 18:51:37;;;;;;;5.45;2.85;;;21.50;60.00;;;;;;5090729;28;20027;-65
2023/05/12 18:54:03;;;;;;;5.88;3.08;;;21.50;61.20;;;;;;5089754;28;20017;-64
2023/05/12 18:56:28;;;;;;;4.03;2.80;;;21.30;63.10;;;;;;5092900;28;20028;-68
2023/05/12 18:58:55;;;;;;;4.03;3.00;;;21.10;65.10;;;;;;5093451;28;20074;-65
2023/05/12 19:01:22;;;;;;;5.13;2.65;;;21.00;66.70;;;;;;5094955;28;20016;-65
2023/05/12 19:03:48;;;;;;;4.85;3.28;;;20.80;68.20;;;;;;5093317;28;20069;-65
2023/05/12 19:06:14;;;;;;;9.75;3.38;;;20.70;70.00;;;;;;5093280;28;20016;-66
2023/05/12 19:08:39;;;;;;;5.45;3.20;;;20.60;70.70;;;;;;5094791;28;20028;-64
2023/05/12 19:11:05;;;;;;;5.07;3.42;;;20.50;71.10;;;;;;5094100;28;20032;-65
2023/05/12 19:13:31;;;;;;;7.07;4.03;;;20.40;71.60;;;;;;5092134;28;20012;-64
2023/05/12 19:15:56;;;;;;;5.22;3.38;;;20.20;72.20;;;;;;5093236;28;20059;-64
2023/05/12 19:18:22;;;;;;;4.82;3.50;;;20.10;73.40;;;;;;5093482;28;20020;-65
2023/05/12 19:20:47;;;;;;;6.93;3.95;;;19.90;73.60;;;;;;5092804;28;20030;-65
2023/05/12 19:23:13;;;;;;;6.75;3.97;;;19.80;74.10;;;;;;5094054;28;20102;-66
2023/05/12 19:25:39;;;;;;;6.95;4.13;;;19.80;75.40;;;;;;5093489;28;20027;-65
2023/05/12 19:28:05;;;;;;;6.47;3.78;;;19.70;76.20;;;;;;5101366;28;20476;-65
2023/05/12 19:30:30;;;;;;;5.50;4.35;;;19.70;76.80;;;;;;5113564;28;20442;-65
2023/05/12 19:32:56;;;;;;;6.65;3.75;;;19.60;77.70;;;;;;5111554;28;20028;-65
2023/05/12 19:35:22;;;;;;;6.57;3.58;;;19.50;78.60;;;;;;5114121;28;20438;-65
2023/05/12 19:37:48;;;;;;;6.20;3.63;;;19.50;79.60;;;;;;5093682;28;20411;-64
2023/05/12 19:40:14;;;;;;;7.65;4.05;;;19.30;79.00;;;;;;5092055;28;20023;-64
2023/05/12 19:42:41;;;;;;;5.15;3.53;;;19.20;78.20;;;;;;5111304;28;20062;-64
2023/05/12 19:45:07;;;;;;;4.95;3.22;;;19.10;78.10;;;;;;5112403;28;20016;-64
2023/05/12 19:47:33;;;;;;;6.38;3.55;;;19.10;78.40;;;;;;5107392;28;20439;-64
2023/05/12 19:49:59;;;;;;;6.28;4.00;;;19.00;78.80;;;;;;5100650;28;20028;-64
2023/05/12 19:52:25;;;;;;;5.43;3.53;;;18.90;78.80;;;;;;5093251;28;20142;-64
2023/05/12 19:54:51;;;;;;;5.95;3.58;;;18.90;79.20;;;;;;5093084;28;20080;-65
2023/05/12 19:57:17;;;;;;;5.78;3.55;;;18.90;78.40;;;;;;5093355;28;20035;-64
2023/05/12 19:59:43;;;;;;;4.78;3.17;;;18.80;77.70;;;;;;5094030;28;20138;-64
2023/05/12 20:02:12;;;;;;;5.00;3.08;;;18.80;78.00;;;;;;5092601;28;20070;-65
2023/05/12 20:04:38;;;;;;;5.13;3.13;;;18.70;78.20;;;;;;5093596;28;20020;-63
2023/05/12 20:07:04;;;;;;;5.70;3.00;;;18.70;78.60;;;;;;5096667;28;20019;-68
2023/05/12 20:09:29;;;;;;;6.25;3.17;;;18.70;79.10;;;;;;5112238;28;20024;-64
2023/05/12 20:11:55;;;;;;;4.60;3.15;;;18.70;79.20;;;;;;5110544;28;20372;-66
2023/05/12 20:14:21;;;;;;;4.10;2.90;;;18.60;78.80;;;;;;5111649;28;20145;-64
2023/05/12 20:16:47;;;;;;;4.25;2.88;;;18.60;77.60;;;;;;5109502;28;20081;-64
2023/05/12 20:19:12;;;;;;;4.95;3.22;;;18.50;77.10;;;;;;5104496;28;20020;-64
2023/05/12 20:21:40;;;;;;;4.28;2.92;;;18.40;76.70;;;;;;5092257;28;20097;-65
2023/05/12 20:24:06;;;;;;;6.03;2.88;;;18.40;77.00;;;;;;5099077;28;20034;-63
2023/05/12 20:26:31;;;;;;;7.68;3.15;;;18.30;76.60;;;;;;5112585;28;20361;-64
2023/05/12 20:28:58;;;;;;;4.50;3.05;;;18.30;77.10;;;;;;5103371;28;20099;-64
2023/05/12 20:31:24;;;;;;;5.13;3.25;;;18.20;77.20;;;;;;5101290;28;20024;-64
2023/05/12 20:33:49;;;;;;;3.83;2.90;;;18.20;77.50;;;;;;5111937;28;20532;-64
2023/05/12 20:36:15;;;;;;;4.40;3.35;;;18.10;77.50;;;;;;5110331;28;20040;-65
2023/05/12 20:38:40;;;;;;;4.70;3.22;;;18.00;77.60;;;;;;5112500;28;20058;-64
2023/05/12 20:41:07;;;;;;;7.55;3.40;;;18.00;78.10;;;;;;5111530;28;20046;-64
2023/05/12 20:43:33;;;;;;;5.35;3.20;;;17.90;78.40;;;;;;5111660;28;20020;-65
2023/05/12 20:45:58;;;;;;;5.60;3.03;;;17.90;78.50;;;;;;5112213;28;20472;-64
2023/05/12 20:48:24;;;;;;;5.97;3.60;;;17.80;78.90;;;;;;5105958;28;20705;-64
2023/05/12 20:50:51;;;;;;;5.20;3.47;;;17.80;79.30;;;;;;5099669;28;20031;-63
2023/05/12 20:53:16;;;;;;;5.78;3.40;;;17.70;79.60;;;;;;5101625;28;20028;-64
2023/05/12 20:55:42;;;;;;;5.57;3.95;;;17.70;79.90;;;;;;5093687;28;20040;-64
2023/05/12 20:58:08;;;;;;;4.40;3.10;;;17.70;80.20;;;;;;5091075;28;20016;-63
2023/05/12 21:00:34;;;;;;;4.72;3.47;;;17.60;80.30;;;;;;5097965;28;20109;-63
